TimePST,TemperatureF,Dew PointF,Humidity,Sea Level PressureIn,VisibilityMPH,Wind Direction,Wind SpeedMPH,Gust SpeedMPH,PrecipitationIn,Events,Conditions,WindDirDegrees,DateUTC
12:23 AM,44.1,42.1,93,30.56,10.0,Calm,Calm,-,N/A,,Overcast,0,2013-02-15 08:23:00
12:32 AM,44.1,42.1,93,30.56,10.0,Calm,Calm,-,N/A,,Overcast,0,2013-02-15 08:32:00
12:45 AM,45.0,42.1,90,30.56,10.0,Calm,Calm,-,N/A,,Overcast,0,2013-02-15 08:45:00
12:53 AM,45.0,42.1,90,30.57,10.0,Calm,Calm,-,N/A,,Overcast,0,2013-02-15 08:53:00
1:24 AM,45.0,42.1,90,30.55,10.0,Calm,Calm,-,N/A,,Overcast,0,2013-02-15 09:24:00
1:53 AM,45.0,43.0,93,30.55,10.0,Calm,Calm,-,N/A,,Overcast,0,2013-02-15 09:53:00
2:53 AM,45.0,43.0,93,30.54,10.0,ESE,3.5,-,N/A,,Overcast,110,2013-02-15 10:53:00
3:01 AM,45.0,43.0,93,30.53,10.0,ESE,3.5,-,N/A,,Overcast,110,2013-02-15 11:01:00
3:17 AM,45.0,43.0,93,30.52,9.0,ESE,3.5,-,N/A,,Overcast,110,2013-02-15 11:17:00
3:28 AM,45.0,43.0,93,30.52,7.0,Calm,Calm,-,N/A,,Overcast,0,2013-02-15 11:28:00
3:53 AM,45.0,43.0,93,30.53,7.0,Calm,Calm,-,N/A,,Overcast,0,2013-02-15 11:53:00
4:42 AM,45.0,43.0,93,30.51,7.0,Calm,Calm,-,N/A,,Overcast,0,2013-02-15 12:42:00
4:53 AM,45.0,43.0,93,30.52,6.0,Calm,Calm,-,N/A,,Overcast,0,2013-02-15 12:53:00
5:44 AM,45.0,43.0,93,30.50,2.0,Calm,Calm,-,N/A,,Overcast,0,2013-02-15 13:44:00
5:51 AM,44.6,42.8,93,30.50,1.5,Calm,Calm,-,N/A,,Overcast,0,2013-02-15 13:51:00
5:53 AM,45.0,43.0,93,30.51,1.2,Calm,Calm,-,N/A,,Overcast,0,2013-02-15 13:53:00
6:03 AM,45.0,43.0,93,30.50,0.8,Calm,Calm,-,N/A,,Overcast,0,2013-02-15 14:03:00
6:39 AM,45.0,43.0,93,30.49,1.2,East,4.6,-,N/A,,Overcast,100,2013-02-15 14:39:00
6:53 AM,45.0,43.0,93,30.49,1.5,East,5.8,-,0.00,Rain,Light Rain,80,2013-02-15 14:53:00
7:05 AM,45.0,43.0,93,30.48,0.5,East,4.6,-,0.00,Fog,Fog,80,2013-02-15 15:05:00
7:29 AM,45.0,43.0,93,30.48,1.5,ENE,4.6,-,0.00,,Overcast,60,2013-02-15 15:29:00
7:53 AM,45.0,43.0,93,30.49,1.8,East,4.6,-,0.00,,Overcast,80,2013-02-15 15:53:00
8:03 AM,45.0,43.0,93,30.48,2.0,East,5.8,-,N/A,,Overcast,90,2013-02-15 16:03:00
8:10 AM,45.0,43.0,93,30.47,1.2,East,4.6,-,0.00,Rain,Light Rain,90,2013-02-15 16:10:00
8:24 AM,45.0,43.0,93,30.47,1.0,East,4.6,-,0.00,Rain,Light Rain,80,2013-02-15 16:24:00
8:53 AM,45.0,43.0,93,30.48,1.0,East,5.8,-,0.00,Rain,Light Rain,90,2013-02-15 16:53:00
9:06 AM,45.0,43.0,93,30.47,0.8,East,5.8,-,0.00,Rain,Light Rain,80,2013-02-15 17:06:00
9:19 AM,45.0,43.0,93,30.46,1.0,East,6.9,-,0.00,Rain,Light Rain,90,2013-02-15 17:19:00
9:26 AM,45.0,43.0,93,30.46,1.0,East,5.8,-,0.00,,Overcast,80,2013-02-15 17:26:00
9:53 AM,45.0,43.0,93,30.46,1.0,East,6.9,-,0.00,,Overcast,90,2013-02-15 17:53:00
10:53 AM,45.0,43.0,93,30.45,1.8,East,9.2,-,N/A,,Overcast,90,2013-02-15 18:53:00
11:00 AM,45.0,43.0,93,30.44,2.0,East,8.1,-,N/A,,Overcast,80,2013-02-15 19:00:00
11:08 AM,45.0,44.1,97,30.43,1.5,East,5.8,-,N/A,,Overcast,90,2013-02-15 19:08:00
11:28 AM,45.0,44.1,97,30.43,2.5,East,5.8,-,N/A,,Overcast,80,2013-02-15 19:28:00
11:39 AM,45.0,43.0,93,30.42,3.0,East,5.8,-,N/A,,Overcast,90,2013-02-15 19:39:00
11:53 AM,45.0,44.1,97,30.42,3.0,East,5.8,-,N/A,,Overcast,90,2013-02-15 19:53:00
12:53 PM,46.0,43.0,89,30.39,4.0,ENE,5.8,-,N/A,,Overcast,70,2013-02-15 20:53:00
1:53 PM,45.0,43.0,93,30.36,8.0,East,8.1,-,N/A,,Overcast,80,2013-02-15 21:53:00
2:32 PM,46.0,43.0,89,30.35,10.0,East,4.6,-,N/A,,Overcast,80,2013-02-15 22:32:00
2:53 PM,46.0,43.0,89,30.35,10.0,ESE,6.9,-,N/A,,Overcast,110,2013-02-15 22:53:00
3:53 PM,46.0,42.1,86,30.33,10.0,ESE,3.5,-,N/A,,Overcast,110,2013-02-15 23:53:00
4:53 PM,46.0,42.1,86,30.30,10.0,ESE,4.6,-,N/A,,Overcast,120,2013-02-16 00:53:00
5:53 PM,45.0,42.1,90,30.28,10.0,Calm,Calm,-,N/A,,Overcast,0,2013-02-16 01:53:00
6:53 PM,45.0,41.0,86,30.26,10.0,SSE,4.6,-,N/A,,Overcast,160,2013-02-16 02:53:00
7:53 PM,44.1,41.0,89,30.25,10.0,SSE,4.6,-,N/A,,Overcast,150,2013-02-16 03:53:00
8:05 PM,43.0,39.9,89,30.23,10.0,South,4.6,-,N/A,,Mostly Cloudy,180,2013-02-16 04:05:00
8:15 PM,44.1,39.9,85,30.23,10.0,South,4.6,-,N/A,,Scattered Clouds,170,2013-02-16 04:15:00
8:53 PM,42.1,39.0,89,30.23,10.0,SSE,3.5,-,N/A,,Clear,150,2013-02-16 04:53:00
9:53 PM,39.9,39.0,97,30.21,10.0,SE,4.6,-,N/A,,Clear,130,2013-02-16 05:53:00
10:53 PM,39.9,37.9,93,30.19,10.0,Calm,Calm,-,N/A,,Clear,0,2013-02-16 06:53:00
11:53 PM,37.9,37.0,97,30.18,8.0,Calm,Calm,-,N/A,,Clear,0,2013-02-16 07:53:00
11:59 PM,36.0,35.1,97,30.17,1.8,Calm,Calm,-,N/A,,Clear,0,2013-02-16 07:59:00